Time;durP1;ratioP1;P1;durP2;ratioP2;P2;SDS_P1;SDS_P2;PMS_P1;PMS_P2;Temp;Humidity;BMP_temperature;BMP_pressure;BME280_temperature;BME280_humidity;BME280_pressure;Samples;Min_cycle;Max_cycle;Signal;HPM_P1;HPM_P2
2024/03/26 05:06:30;;;;;;;0.60;0.60;;;4.40;99.90;;;;;;5491521;23;20243;-59
2024/03/26 05:08:55;;;;;;;0.50;0.50;;;4.40;99.90;;;;;;4898616;29;20567;-58
2024/03/26 05:11:21;;;;;;;0.30;0.30;;;4.40;99.90;;;;;;4898895;29;20183;-60
2024/03/26 05:13:46;;;;;;;0.40;0.40;;;4.40;99.90;;;;;;4898877;29;20266;-59
2024/03/26 05:16:12;;;;;;;0.40;0.40;;;4.40;99.90;;;;;;4897987;29;20196;-61
2024/03/26 05:18:38;;;;;;;0.40;0.40;;;4.50;99.90;;;;;;4898781;29;20173;-60
2024/03/26 05:21:04;;;;;;;0.50;0.50;;;4.50;99.90;;;;;;4898656;29;20365;-60
2024/03/26 05:23:29;;;;;;;0.33;0.33;;;4.50;99.90;;;;;;4898933;29;20682;-60
2024/03/26 05:25:55;;;;;;;0.50;0.50;;;4.60;99.90;;;;;;4898481;29;20195;-61
2024/03/26 05:28:20;;;;;;;0.30;0.30;;;4.60;99.90;;;;;;4898984;29;20626;-59
2024/03/26 05:30:46;;;;;;;0.40;0.40;;;4.70;99.90;;;;;;4899120;29;20182;-61
2024/03/26 05:33:12;;;;;;;0.30;0.30;;;4.70;99.90;;;;;;4899074;29;20196;-60
2024/03/26 05:35:37;;;;;;;0.50;0.50;;;4.80;99.90;;;;;;4897763;29;20259;-61
2024/03/26 05:38:03;;;;;;;0.40;0.40;;;4.70;99.90;;;;;;4898523;29;20272;-60
2024/03/26 05:40:29;;;;;;;0.40;0.40;;;4.80;99.90;;;;;;4898730;29;20188;-60
2024/03/26 05:42:54;;;;;;;0.40;0.40;;;4.80;99.90;;;;;;4898906;29;20409;-60
2024/03/26 05:45:20;;;;;;;0.40;0.40;;;4.90;99.90;;;;;;4898566;29;20590;-62
2024/03/26 05:47:45;;;;;;;0.80;0.80;;;5.00;99.90;;;;;;4898922;29;20184;-59
2024/03/26 05:50:12;;;;;;;0.40;0.40;;;5.10;99.90;;;;;;4898714;29;20187;-61
2024/03/26 05:52:37;;;;;;;0.30;0.30;;;5.10;99.90;;;;;;4898457;29;20224;-61
2024/03/26 05:55:03;;;;;;;0.90;0.87;;;5.20;99.90;;;;;;4898357;29;20264;-60
2024/03/26 05:57:29;;;;;;;0.40;0.40;;;5.20;99.90;;;;;;4898177;29;20196;-61
2024/03/26 05:59:54;;;;;;;0.30;0.30;;;5.30;99.90;;;;;;4898284;29;20418;-61
2024/03/26 06:02:20;;;;;;;0.30;0.30;;;5.30;99.90;;;;;;4898676;29;20206;-61
2024/03/26 06:04:45;;;;;;;0.40;0.40;;;5.40;99.90;;;;;;4898650;29;20632;-59
2024/03/26 06:07:11;;;;;;;0.40;0.40;;;5.40;99.90;;;;;;4897387;29;20214;-63
2024/03/26 06:09:38;;;;;;;0.50;0.50;;;5.50;99.90;;;;;;4899314;29;20189;-60
2024/03/26 06:12:04;;;;;;;0.40;0.40;;;5.50;99.90;;;;;;4899149;29;20766;-61
2024/03/26 06:14:30;;;;;;;0.50;0.50;;;5.50;99.90;;;;;;4898254;29;20186;-61
2024/03/26 06:16:55;;;;;;;0.40;0.40;;;5.60;99.90;;;;;;4898531;29;20197;-61
2024/03/26 06:19:21;;;;;;;0.40;0.40;;;5.60;99.90;;;;;;4898447;29;20216;-60
2024/03/26 06:21:47;;;;;;;0.40;0.40;;;5.60;99.90;;;;;;4898367;29;20249;-61
2024/03/26 06:24:12;;;;;;;0.40;0.40;;;5.70;99.90;;;;;;4898682;29;20178;-62
2024/03/26 06:26:38;;;;;;;0.40;0.40;;;5.70;99.90;;;;;;4899025;29;20429;-59
2024/03/26 06:29:03;;;;;;;0.40;0.40;;;5.80;99.90;;;;;;4902235;29;20185;-62
2024/03/26 06:31:29;;;;;;;0.30;0.30;;;5.90;99.90;;;;;;4902618;29;20205;-57
2024/03/26 06:33:55;;;;;;;0.40;0.40;;;5.90;99.90;;;;;;4902342;29;20219;-62
2024/03/26 06:36:20;;;;;;;0.40;0.40;;;5.90;99.90;;;;;;4902278;29;20230;-59
2024/03/26 06:38:46;;;;;;;0.30;0.30;;;6.00;99.90;;;;;;4902641;29;20178;-62
2024/03/26 06:41:12;;;;;;;0.40;0.40;;;6.10;99.90;;;;;;4902317;29;20197;-60
2024/03/26 06:43:37;;;;;;;0.57;0.57;;;6.20;99.90;;;;;;4902075;29;20629;-60
2024/03/26 06:46:04;;;;;;;0.40;0.40;;;6.20;99.90;;;;;;4901782;29;20276;-61
2024/03/26 06:48:30;;;;;;;0.30;0.30;;;6.20;99.90;;;;;;4900481;29;20637;-61
2024/03/26 06:50:55;;;;;;;0.30;0.30;;;6.30;99.90;;;;;;4901501;29;20201;-63
2024/03/26 06:53:21;;;;;;;0.37;0.37;;;6.40;99.90;;;;;;4900037;29;20553;-60
2024/03/26 06:55:47;;;;;;;0.30;0.30;;;6.50;99.90;;;;;;4900867;29;20196;-61
2024/03/26 06:58:12;;;;;;;0.50;0.50;;;6.50;99.90;;;;;;4901792;29;20178;-61
2024/03/26 07:00:38;;;;;;;0.30;0.30;;;6.60;99.90;;;;;;4902466;29;20183;-61
2024/03/26 07:03:04;;;;;;;0.40;0.40;;;6.70;99.90;;;;;;4901715;29;20249;-60
2024/03/26 07:05:29;;;;;;;0.40;0.40;;;6.80;99.90;;;;;;4901542;29;20463;-61
2024/03/26 07:07:55;;;;;;;0.30;0.30;;;7.00;99.90;;;;;;4901799;29;20450;-61
2024/03/26 07:10:21;;;;;;;0.40;0.40;;;7.10;99.90;;;;;;4902631;29;20322;-62
2024/03/26 07:12:46;;;;;;;0.30;0.30;;;7.20;99.90;;;;;;4900801;29;20175;-60
2024/03/26 07:15:12;;;;;;;0.40;0.40;;;7.40;99.90;;;;;;4901616;29;20198;-61
2024/03/26 07:17:38;;;;;;;0.30;0.30;;;7.40;99.90;;;;;;4900562;29;20182;-62
2024/03/26 07:20:05;;;;;;;0.30;0.30;;;7.50;99.90;;;;;;4901278;29;20187;-59
2024/03/26 07:22:31;;;;;;;1.52;1.42;;;7.60;99.90;;;;;;4901222;29;20442;-62
2024/03/26 07:24:56;;;;;;;0.33;0.33;;;7.70;99.90;;;;;;4901055;29;20658;-61
2024/03/26 07:27:22;;;;;;;0.30;0.30;;;7.80;99.90;;;;;;4901217;29;20202;-63
2024/03/26 07:29:48;;;;;;;0.30;0.30;;;7.80;99.90;;;;;;4902083;29;20189;-59
2024/03/26 07:32:14;;;;;;;0.30;0.30;;;7.90;99.90;;;;;;4901921;29;20277;-62
2024/03/26 07:34:40;;;;;;;0.30;0.30;;;7.90;99.90;;;;;;4901782;29;20550;-60
2024/03/26 07:37:05;;;;;;;0.40;0.40;;;7.90;99.90;;;;;;4900963;29;20229;-60
2024/03/26 07:39:31;;;;;;;0.30;0.30;;;8.00;99.90;;;;;;4902115;29;20656;-60
2024/03/26 07:41:57;;;;;;;0.50;0.50;;;8.10;99.90;;;;;;4901132;29;20186;-61
2024/03/26 07:44:23;;;;;;;0.30;0.30;;;8.10;99.90;;;;;;4901027;29;20211;-61
2024/03/26 07:46:49;;;;;;;0.30;0.30;;;8.20;99.90;;;;;;4900161;29;20233;-60
2024/03/26 07:49:14;;;;;;;0.30;0.30;;;8.40;99.90;;;;;;4900407;29;20174;-62
2024/03/26 07:51:40;;;;;;;0.40;0.40;;;8.50;99.90;;;;;;4900442;29;20778;-60
2024/03/26 07:54:06;;;;;;;0.30;0.30;;;8.60;99.90;;;;;;4900801;29;20176;-64
2024/03/26 07:56:32;;;;;;;0.30;0.30;;;8.70;99.80;;;;;;4900357;29;20282;-60
2024/03/26 07:58:58;;;;;;;0.30;0.30;;;8.80;99.70;;;;;;4901750;29;20182;-62
2024/03/26 08:01:24;;;;;;;0.50;0.43;;;9.00;99.50;;;;;;4899545;29;20178;-61
2024/03/26 08:03:53;;;;;;;0.30;0.30;;;9.20;98.70;;;;;;4901631;29;20208;-62
2024/03/26 08:06:18;;;;;;;0.30;0.30;;;9.30;98.30;;;;;;4900779;29;20281;-62
2024/03/26 08:08:51;;;;;;;0.30;0.30;;;9.40;98.60;;;;;;4900961;29;20211;-62
2024/03/26 08:11:17;;;;;;;0.30;0.30;;;9.60;98.00;;;;;;4900355;29;20219;-63
2024/03/26 08:13:43;;;;;;;0.30;0.30;;;10.00;97.10;;;;;;4899905;29;20455;-62
2024/03/26 08:16:09;;;;;;;0.30;0.30;;;10.20;96.00;;;;;;4899713;29;20468;-61
2024/03/26 08:18:34;;;;;;;0.30;0.30;;;10.40;95.80;;;;;;4899833;29;20419;-63
2024/03/26 08:21:00;;;;;;;0.37;0.37;;;10.50;95.40;;;;;;4899968;29;20185;-62
2024/03/26 08:23:26;;;;;;;0.30;0.30;;;10.60;94.90;;;;;;4899851;29;20185;-61
2024/03/26 08:25:53;;;;;;;0.30;0.30;;;10.80;94.80;;;;;;4899755;29;20478;-63
2024/03/26 08:28:18;;;;;;;0.30;0.30;;;10.80;94.00;;;;;;4899978;29;20556;-60
2024/03/26 08:30:44;;;;;;;0.53;0.53;;;10.90;94.30;;;;;;4900151;29;20465;-62
2024/03/26 08:33:09;;;;;;;0.50;0.40;;;10.80;94.10;;;;;;4899828;29;20274;-59
2024/03/26 08:35:42;;;;;;;0.30;0.30;;;10.90;93.90;;;;;;4899985;29;20212;-63
2024/03/26 08:38:08;;;;;;;0.40;0.40;;;10.90;94.10;;;;;;4900170;29;20217;-62
2024/03/26 08:40:33;;;;;;;0.30;0.30;;;10.90;94.20;;;;;;4899351;29;20430;-62
2024/03/26 08:42:59;;;;;;;0.30;0.30;;;11.00;94.10;;;;;;4883343;29;20415;-61
2024/03/26 08:45:25;;;;;;;0.30;0.30;;;11.10;94.10;;;;;;4900057;29;20544;-64
2024/03/26 08:47:51;;;;;;;0.30;0.30;;;11.20;94.10;;;;;;4901117;29;20422;-61
2024/03/26 08:50:17;;;;;;;0.30;0.30;;;11.20;94.20;;;;;;4899547;29;20445;-62
2024/03/26 08:52:43;;;;;;;0.40;0.40;;;11.30;94.20;;;;;;4900203;29;20182;-62
2024/03/26 08:55:09;;;;;;;0.30;0.30;;;11.50;94.20;;;;;;4899630;29;20424;-61
2024/03/26 08:57:35;;;;;;;0.80;0.43;;;11.70;94.00;;;;;;4899491;29;20809;-62
2024/03/26 09:00:01;;;;;;;0.30;0.30;;;11.90;93.40;;;;;;4899474;29;20213;-60
2024/03/26 09:02:27;;;;;;;0.30;0.30;;;12.10;92.90;;;;;;4899287;29;20565;-64
2024/03/26 09:04:53;;;;;;;0.30;0.20;;;12.20;92.90;;;;;;4898841;29;20434;-60
2024/03/26 09:07:18;;;;;;;0.30;0.30;;;12.50;92.30;;;;;;4898572;29;20710;-62
2024/03/26 09:09:45;;;;;;;0.30;0.30;;;12.90;92.40;;;;;;4899056;29;20199;-62
2024/03/26 09:12:11;;;;;;;0.30;0.30;;;13.40;91.50;;;;;;4897308;29;20277;-64
2024/03/26 09:14:36;;;;;;;0.30;0.20;;;14.20;90.90;;;;;;4898631;29;20381;-60
2024/03/26 09:17:03;;;;;;;0.30;0.30;;;15.20;90.00;;;;;;4898484;29;20206;-63
2024/03/26 09:19:29;;;;;;;0.30;0.20;;;16.40;87.50;;;;;;4898631;29;20178;-65
2024/03/26 09:21:55;;;;;;;0.30;0.20;;;17.50;84.50;;;;;;4898492;29;20430;-66
2024/03/26 09:24:21;;;;;;;0.30;0.30;;;18.70;79.80;;;;;;4898628;29;20187;-66
2024/03/26 09:26:47;;;;;;;0.30;0.20;;;19.30;75.10;;;;;;4898213;29;20217;-62
2024/03/26 09:29:12;;;;;;;0.40;0.40;;;19.70;74.80;;;;;;4898666;29;20956;-59
2024/03/26 09:31:39;;;;;;;1.53;1.43;;;20.40;71.50;;;;;;4898349;29;20210;-65
2024/03/26 09:34:05;;;;;;;0.30;0.20;;;21.10;68.60;;;;;;4898280;29;20171;-65
2024/03/26 09:36:31;;;;;;;0.30;0.20;;;21.40;67.60;;;;;;4897819;29;20447;-60
2024/03/26 09:38:57;;;;;;;0.30;0.30;;;21.80;67.20;;;;;;4898354;29;20183;-64
2024/03/26 09:41:26;;;;;;;0.30;0.30;;;22.20;66.90;;;;;;4898100;29;20785;-62
2024/03/26 09:43:53;;;;;;;0.30;0.30;;;22.60;63.90;;;;;;4898279;29;20191;-66
2024/03/26 09:46:19;;;;;;;0.40;0.40;;;22.70;62.70;;;;;;4897787;29;20494;-61
2024/03/26 09:48:46;;;;;;;0.40;0.30;;;22.90;63.00;;;;;;4898182;29;20474;-62
2024/03/26 09:51:14;;;;;;;0.40;0.40;;;23.20;63.40;;;;;;4897837;29;20471;-61
2024/03/26 09:53:42;;;;;;;0.40;0.40;;;23.40;62.00;;;;;;4897979;29;20390;-64
2024/03/26 09:56:08;;;;;;;0.57;0.57;;;23.50;61.30;;;;;;4897672;29;20409;-64
2024/03/26 09:58:34;;;;;;;0.30;0.20;;;23.60;62.00;;;;;;4898131;29;20470;-59
2024/03/26 10:01:02;;;;;;;0.40;0.40;;;23.50;60.30;;;;;;4897920;29;20257;-66
2024/03/26 10:03:30;;;;;;;1.13;0.40;;;22.60;61.50;;;;;;4901584;29;20179;-62
2024/03/26 10:05:56;;;;;;;0.40;0.40;;;22.30;64.30;;;;;;4901517;29;20544;-66
2024/03/26 10:08:21;;;;;;;0.50;0.37;;;22.10;62.70;;;;;;4901841;29;20512;-62
2024/03/26 10:10:47;;;;;;;0.30;0.20;;;22.10;62.20;;;;;;4901651;29;20240;-66
2024/03/26 10:13:14;;;;;;;1.07;0.70;;;22.00;61.20;;;;;;4901747;29;20199;-61
2024/03/26 10:15:41;;;;;;;0.50;0.50;;;22.30;61.10;;;;;;4901301;29;20465;-66
2024/03/26 10:18:08;;;;;;;0.40;0.30;;;22.40;61.40;;;;;;4901487;29;20183;-65
2024/03/26 10:20:33;;;;;;;0.40;0.40;;;22.00;61.80;;;;;;4901612;29;20404;-61
2024/03/26 10:23:08;;;;;;;0.37;0.37;;;21.60;62.10;;;;;;4902218;29;20389;-65
2024/03/26 10:25:34;;;;;;;0.30;0.30;;;21.20;62.80;;;;;;4901192;29;20289;-63
2024/03/26 10:28:02;;;;;;;0.30;0.20;;;20.90;63.30;;;;;;4901476;29;20423;-65
2024/03/26 10:30:29;;;;;;;0.30;0.30;;;21.20;64.10;;;;;;4901504;29;20823;-65
2024/03/26 10:32:57;;;;;;;1.17;0.83;;;21.40;64.30;;;;;;4901329;29;20722;-65
2024/03/26 10:35:23;;;;;;;0.30;0.30;;;21.50;63.20;;;;;;4900776;29;20432;-61
2024/03/26 10:37:57;;;;;;;0.40;0.40;;;22.00;63.20;;;;;;4901412;29;20521;-65
2024/03/26 10:40:28;;;;;;;0.30;0.30;;;22.30;61.90;;;;;;4901235;29;20389;-62
2024/03/26 10:42:58;;;;;;;0.30;0.30;;;22.40;61.70;;;;;;4901310;29;20774;-67
2024/03/26 10:45:24;;;;;;;0.30;0.30;;;22.70;60.00;;;;;;4900681;29;20390;-62
2024/03/26 10:47:52;;;;;;;0.50;0.40;;;22.60;62.10;;;;;;4900956;29;20397;-66
2024/03/26 10:50:18;;;;;;;0.40;0.40;;;22.60;58.70;;;;;;4900893;29;20426;-64
2024/03/26 10:52:46;;;;;;;0.40;0.40;;;22.60;59.20;;;;;;4901031;29;20771;-64
2024/03/26 10:55:12;;;;;;;0.30;0.20;;;22.70;59.30;;;;;;4900796;29;20414;-60
2024/03/26 10:57:39;;;;;;;0.30;0.30;;;22.70;59.90;;;;;;4901000;29;20922;-65
2024/03/26 11:00:10;;;;;;;0.40;0.40;;;22.60;59.30;;;;;;4900861;29;20524;-59
2024/03/26 11:02:50;;;;;;;0.30;0.30;;;22.40;59.20;;;;;;4900861;29;20985;-66
2024/03/26 11:05:15;;;;;;;0.30;0.27;;;22.60;59.70;;;;;;4900510;29;20419;-62
2024/03/26 11:07:48;;;;;;;0.30;0.30;;;22.60;59.50;;;;;;4900469;29;20522;-66
2024/03/26 11:10:17;;;;;;;0.30;0.20;;;22.70;59.50;;;;;;4900792;29;20201;-63
2024/03/26 11:12:44;;;;;;;0.30;0.20;;;22.40;59.60;;;;;;4900135;29;20936;-61
2024/03/26 11:15:31;;;;;;;0.30;0.20;;;22.40;60.20;;;;;;4899848;29;20404;-63
2024/03/26 11:18:04;;;;;;;0.30;0.30;;;22.20;62.60;;;;;;4900902;29;20401;-64
2024/03/26 11:20:31;;;;;;;0.30;0.30;;;21.70;60.70;;;;;;4900915;29;20794;-64
2024/03/26 11:23:04;;;;;;;0.33;0.33;;;21.00;61.20;;;;;;4900494;29;20450;-63
2024/03/26 11:25:34;;;;;;;0.40;0.40;;;20.30;62.00;;;;;;4900129;29;20877;-64
2024/03/26 11:28:01;;;;;;;0.30;0.20;;;19.90;63.20;;;;;;4900812;29;20904;-63
2024/03/26 11:30:28;;;;;;;0.30;0.30;;;19.70;63.70;;;;;;4900420;29;20418;-61
2024/03/26 11:32:54;;;;;;;0.30;0.30;;;19.30;64.20;;;;;;4900567;29;20468;-65
2024/03/26 11:35:21;;;;;;;0.30;0.30;;;19.10;66.30;;;;;;4899918;29;20420;-63
2024/03/26 11:37:48;;;;;;;0.30;0.30;;;18.90;65.90;;;;;;4900554;29;20438;-62
2024/03/26 11:40:15;;;;;;;0.30;0.30;;;18.80;64.40;;;;;;4900394;29;20446;-60
2024/03/26 11:42:42;;;;;;;0.30;0.30;;;18.50;65.00;;;;;;4900433;29;20470;-62
2024/03/26 11:45:09;;;;;;;0.30;0.20;;;18.30;65.50;;;;;;4900171;29;20427;-60
2024/03/26 11:47:34;;;;;;;0.30;0.30;;;18.30;64.80;;;;;;4900479;29;20790;-62
2024/03/26 11:50:00;;;;;;;0.40;0.40;;;18.20;65.00;;;;;;4900318;29;20409;-63
2024/03/26 11:52:27;;;;;;;0.40;0.40;;;18.10;66.80;;;;;;4900155;29;20301;-63
2024/03/26 11:54:52;;;;;;;0.40;0.40;;;18.00;65.80;;;;;;4900068;29;20423;-62
2024/03/26 11:57:18;;;;;;;0.30;0.30;;;17.90;65.40;;;;;;4900245;29;20919;-63
2024/03/26 11:59:47;;;;;;;0.30;0.30;;;17.80;66.10;;;;;;4899258;29;20211;-63
2024/03/26 12:02:13;;;;;;;0.30;0.30;;;17.70;65.60;;;;;;4900219;29;20205;-63
2024/03/26 12:04:40;;;;;;;0.40;0.40;;;17.70;65.80;;;;;;4899863;29;20938;-63
2024/03/26 12:07:10;;;;;;;0.33;0.33;;;17.70;65.90;;;;;;4899781;29;20213;-64
2024/03/26 12:09:36;;;;;;;0.30;0.30;;;17.70;66.00;;;;;;4899745;29;20469;-63
2024/03/26 12:12:02;;;;;;;0.53;0.53;;;17.60;64.70;;;;;;4899720;29;20495;-62
2024/03/26 12:14:27;;;;;;;0.30;0.30;;;17.60;65.10;;;;;;4900111;29;20207;-64
2024/03/26 12:16:53;;;;;;;0.57;0.57;;;17.70;65.40;;;;;;4898279;29;20199;-63
2024/03/26 12:19:19;;;;;;;0.30;0.20;;;17.80;65.20;;;;;;4899780;29;20179;-60
2024/03/26 12:21:45;;;;;;;0.30;0.30;;;17.90;63.80;;;;;;4899781;29;20179;-64
2024/03/26 12:24:14;;;;;;;0.30;0.30;;;17.90;61.50;;;;;;4898260;29;20660;-63
2024/03/26 12:26:43;;;;;;;0.30;0.30;;;18.00;62.60;;;;;;4897933;29;20932;-64
2024/03/26 12:29:10;;;;;;;0.30;0.30;;;18.10;62.40;;;;;;4899642;29;20815;-62
2024/03/26 12:31:39;;;;;;;0.30;0.20;;;18.10;62.30;;;;;;4899061;29;20451;-60
2024/03/26 12:34:12;;;;;;;0.40;0.40;;;18.30;62.60;;;;;;4899326;29;20509;-63
2024/03/26 12:36:38;;;;;;;0.30;0.30;;;18.40;60.70;;;;;;4897613;29;20907;-60
2024/03/26 12:39:10;;;;;;;0.33;0.33;;;18.50;61.20;;;;;;4899096;29;20706;-63
2024/03/26 12:41:36;;;;;;;0.30;0.30;;;18.60;60.90;;;;;;4899281;29;20390;-61
2024/03/26 12:44:05;;;;;;;0.40;0.40;;;18.70;59.60;;;;;;4899090;29;20426;-63
2024/03/26 12:46:30;;;;;;;0.40;0.40;;;18.70;58.80;;;;;;4898800;29;20454;-63
2024/03/26 12:48:56;;;;;;;0.30;0.30;;;18.60;58.40;;;;;;4899151;29;20884;-64
2024/03/26 12:51:23;;;;;;;0.33;0.33;;;18.60;58.30;;;;;;4899120;29;20210;-63
2024/03/26 12:53:48;;;;;;;0.30;0.30;;;18.50;58.10;;;;;;4899054;29;20215;-64
2024/03/26 12:56:15;;;;;;;0.70;0.70;;;18.50;58.80;;;;;;4898524;29;20445;-61
2024/03/26 12:58:41;;;;;;;0.30;0.30;;;18.60;59.60;;;;;;4898923;29;20243;-61
2024/03/26 13:01:09;;;;;;;0.60;0.60;;;18.60;59.80;;;;;;4898785;29;20835;-64
2024/03/26 13:03:35;;;;;;;0.30;0.30;;;18.60;59.10;;;;;;4898877;29;20429;-60
2024/03/26 13:06:01;;;;;;;0.30;0.30;;;18.70;59.00;;;;;;4898477;29;20429;-64
2024/03/26 13:08:27;;;;;;;0.30;0.30;;;18.80;58.20;;;;;;4898538;29;20417;-62
2024/03/26 13:10:52;;;;;;;0.53;0.53;;;18.80;57.60;;;;;;4898377;29;20228;-63
2024/03/26 13:13:18;;;;;;;0.30;0.30;;;18.80;57.20;;;;;;4898702;29;20551;-62
2024/03/26 13:15:46;;;;;;;0.30;0.30;;;18.80;57.60;;;;;;4898559;29;20226;-60
2024/03/26 13:18:12;;;;;;;0.50;0.50;;;18.90;57.40;;;;;;4898626;29;20274;-61
2024/03/26 13:20:40;;;;;;;0.30;0.30;;;18.90;57.80;;;;;;4898751;29;20434;-64
2024/03/26 13:23:09;;;;;;;0.40;0.40;;;19.00;58.10;;;;;;4898674;29;20415;-60
2024/03/26 13:25:35;;;;;;;0.30;0.30;;;19.00;58.70;;;;;;4897931;29;20410;-64
2024/03/26 13:28:02;;;;;;;0.40;0.40;;;19.10;58.60;;;;;;4898707;29;20390;-61
2024/03/26 13:30:28;;;;;;;0.30;0.30;;;19.20;58.40;;;;;;4898262;29;20422;-62
2024/03/26 13:32:55;;;;;;;0.30;0.30;;;19.20;57.60;;;;;;4898407;29;20422;-62
2024/03/26 13:35:23;;;;;;;0.30;0.20;;;19.20;56.90;;;;;;4898246;29;20499;-62
2024/03/26 13:37:49;;;;;;;0.30;0.30;;;19.30;56.70;;;;;;4897869;29;20425;-65
2024/03/26 13:40:16;;;;;;;0.30;0.20;;;19.40;56.80;;;;;;4898226;29;20458;-64
2024/03/26 13:42:42;;;;;;;0.30;0.30;;;19.50;57.60;;;;;;4898644;29;20423;-60
2024/03/26 13:45:07;;;;;;;0.30;0.30;;;19.60;56.40;;;;;;4898168;29;20422;-61
2024/03/26 13:47:33;;;;;;;0.30;0.30;;;19.70;55.10;;;;;;4898510;29;20301;-63
2024/03/26 13:49:59;;;;;;;0.30;0.30;;;19.60;55.70;;;;;;4898396;29;20194;-60
2024/03/26 13:52:24;;;;;;;0.30;0.30;;;19.60;54.80;;;;;;4898130;29;20327;-62
2024/03/26 13:54:50;;;;;;;0.30;0.20;;;19.60;54.80;;;;;;4897870;29;20172;-63
2024/03/26 13:57:17;;;;;;;0.30;0.30;;;19.60;53.70;;;;;;4898033;29;20249;-64
2024/03/26 13:59:42;;;;;;;0.30;0.30;;;19.50;54.20;;;;;;4898060;29;20448;-62
2024/03/26 14:02:08;;;;;;;0.30;0.30;;;19.40;54.70;;;;;;4898432;29;20488;-60
2024/03/26 14:04:34;;;;;;;0.30;0.30;;;19.40;55.10;;;;;;4898353;29;20182;-63
2024/03/26 14:07:01;;;;;;;0.40;0.40;;;19.40;54.60;;;;;;4898122;29;20465;-60
2024/03/26 14:09:26;;;;;;;0.33;0.33;;;19.40;54.60;;;;;;4898298;29;20426;-65
2024/03/26 14:11:52;;;;;;;0.30;0.30;;;19.30;55.40;;;;;;4898438;29;20437;-60
2024/03/26 14:14:17;;;;;;;0.30;0.20;;;19.30;55.00;;;;;;4898239;29;20602;-61
2024/03/26 14:16:43;;;;;;;0.30;0.30;;;19.20;54.20;;;;;;4897966;29;20223;-64
2024/03/26 14:19:09;;;;;;;0.30;0.27;;;19.20;55.10;;;;;;4898251;29;20178;-64
2024/03/26 14:21:34;;;;;;;0.30;0.30;;;19.10;55.00;;;;;;4898047;29;20198;-61
2024/03/26 14:24:00;;;;;;;0.30;0.27;;;19.10;55.10;;;;;;4897993;29;20258;-65
2024/03/26 14:26:27;;;;;;;0.50;0.50;;;19.00;55.30;;;;;;4897769;29;20279;-61
2024/03/26 14:28:53;;;;;;;0.30;0.30;;;18.90;56.70;;;;;;4898106;29;20175;-65
2024/03/26 14:31:23;;;;;;;0.30;0.20;;;18.90;55.80;;;;;;4897693;29;20503;-61
2024/03/26 14:33:49;;;;;;;0.30;0.30;;;18.90;53.90;;;;;;4897858;29;20171;-62
2024/03/26 14:36:14;;;;;;;0.30;0.30;;;18.90;53.50;;;;;;4897450;29;20458;-62
2024/03/26 14:38:40;;;;;;;0.30;0.30;;;18.90;54.60;;;;;;4897569;29;20902;-61
2024/03/26 14:41:06;;;;;;;0.30;0.30;;;18.90;55.70;;;;;;4898198;29;20622;-61
2024/03/26 14:43:31;;;;;;;0.30;0.20;;;18.80;56.00;;;;;;4896559;29;20182;-61
2024/03/26 14:45:57;;;;;;;0.30;0.30;;;18.80;56.10;;;;;;4897347;29;20234;-62
2024/03/26 14:48:23;;;;;;;0.40;0.30;;;18.80;55.70;;;;;;4898335;29;20209;-61
2024/03/26 14:50:52;;;;;;;0.30;0.30;;;18.80;55.30;;;;;;4901435;29;20209;-63
2024/03/26 14:53:18;;;;;;;0.93;0.53;;;18.70;55.50;;;;;;4901347;29;20179;-60
2024/03/26 14:55:44;;;;;;;0.30;0.27;;;18.70;55.60;;;;;;4901466;29;20446;-63
2024/03/26 14:58:09;;;;;;;0.30;0.30;;;18.70;54.90;;;;;;4902336;29;20781;-59
2024/03/26 15:00:35;;;;;;;0.30;0.30;;;18.70;55.00;;;;;;4901431;29;20759;-63
2024/03/26 15:03:00;;;;;;;0.30;0.30;;;18.60;54.60;;;;;;4901362;29;20179;-60
2024/03/26 15:05:26;;;;;;;0.30;0.20;;;18.60;54.70;;;;;;4899851;29;20171;-61
2024/03/26 15:07:52;;;;;;;0.30;0.30;;;18.50;54.40;;;;;;4901018;29;20195;-62
2024/03/26 15:10:18;;;;;;;0.50;0.50;;;18.60;53.60;;;;;;4901534;29;20610;-62
2024/03/26 15:12:43;;;;;;;0.30;0.20;;;18.60;53.60;;;;;;4901120;29;20593;-64
2024/03/26 15:15:09;;;;;;;0.30;0.30;;;18.50;54.20;;;;;;4900649;29;20420;-60
2024/03/26 15:17:35;;;;;;;0.60;0.60;;;18.50;54.20;;;;;;4900932;29;20251;-64
2024/03/26 15:20:02;;;;;;;0.43;0.43;;;18.50;53.90;;;;;;4901067;29;20179;-60
2024/03/26 15:22:28;;;;;;;0.30;0.30;;;18.50;53.70;;;;;;4901551;29;20186;-64
2024/03/26 15:24:54;;;;;;;0.30;0.30;;;18.50;53.80;;;;;;4893865;29;20424;-61
2024/03/26 15:32:30;;;;;;;0.50;0.50;;;18.40;53.30;;;;;;4907144;29;20581;-63
2024/03/26 15:34:55;;;;;;;0.30;0.30;;;18.40;53.00;;;;;;4904834;29;20419;-63
2024/03/26 15:37:21;;;;;;;0.30;0.30;;;18.40;53.40;;;;;;4900916;29;20290;-62
2024/03/26 15:39:47;;;;;;;0.30;0.30;;;18.40;52.60;;;;;;4901628;29;20179;-60
2024/03/26 15:42:13;;;;;;;0.30;0.30;;;18.30;52.50;;;;;;4900389;29;20457;-63
2024/03/26 15:44:39;;;;;;;0.40;0.40;;;18.30;52.70;;;;;;4900445;29;20411;-60
2024/03/26 15:47:05;;;;;;;0.30;0.30;;;18.20;53.20;;;;;;4900398;29;20205;-61
2024/03/26 15:49:33;;;;;;;0.30;0.27;;;18.20;53.40;;;;;;4900688;29;20383;-61
2024/03/26 15:52:03;;;;;;;0.50;0.50;;;18.20;52.70;;;;;;4901177;29;20494;-62
2024/03/26 15:54:29;;;;;;;0.30;0.30;;;18.10;52.70;;;;;;4901444;29;20921;-62
2024/03/26 15:56:54;;;;;;;0.30;0.30;;;18.10;53.40;;;;;;4900991;29;20418;-60
2024/03/26 15:59:20;;;;;;;0.30;0.20;;;18.00;54.00;;;;;;4900157;29;20183;-61
2024/03/26 16:01:46;;;;;;;0.40;0.40;;;17.90;54.60;;;;;;4900966;29;20318;-62
2024/03/26 16:04:12;;;;;;;0.30;0.30;;;17.90;55.40;;;;;;4901212;29;20183;-62
2024/03/26 16:06:38;;;;;;;0.30;0.30;;;17.90;56.00;;;;;;4901068;29;20203;-60
2024/03/26 16:09:05;;;;;;;0.30;0.20;;;17.80;56.20;;;;;;4900947;29;20522;-62
2024/03/26 16:11:32;;;;;;;0.90;0.90;;;17.80;57.00;;;;;;4900635;29;20500;-59
2024/03/26 16:13:57;;;;;;;0.40;0.40;;;17.70;57.40;;;;;;4900649;29;20389;-64
2024/03/26 16:16:23;;;;;;;0.30;0.30;;;17.60;57.80;;;;;;4900666;29;20937;-60
2024/03/26 16:18:49;;;;;;;0.37;0.37;;;17.60;58.80;;;;;;4901344;29;20186;-61
2024/03/26 16:21:15;;;;;;;0.37;0.37;;;17.50;59.30;;;;;;4901142;29;20183;-61
2024/03/26 16:23:41;;;;;;;0.30;0.30;;;17.50;60.20;;;;;;4901261;29;20826;-62
2024/03/26 16:26:08;;;;;;;0.30;0.30;;;17.40;60.80;;;;;;4899420;29;20210;-62
2024/03/26 16:28:34;;;;;;;0.30;0.30;;;17.30;62.30;;;;;;4900758;29;20830;-60
2024/03/26 16:31:01;;;;;;;0.57;0.57;;;17.30;63.00;;;;;;4901103;29;20556;-62
2024/03/26 16:33:26;;;;;;;0.30;0.30;;;17.20;62.50;;;;;;4899689;29;20968;-58
2024/03/26 16:36:03;;;;;;;0.30;0.30;;;17.10;63.30;;;;;;4900151;29;20435;-63
2024/03/26 16:38:31;;;;;;;0.30;0.30;;;17.10;64.40;;;;;;4900294;29;20185;-60
2024/03/26 16:41:01;;;;;;;0.40;0.40;;;17.00;65.30;;;;;;4900029;29;20405;-62
2024/03/26 16:43:27;;;;;;;0.30;0.30;;;16.90;66.30;;;;;;4900140;29;20421;-61
2024/03/26 16:45:52;;;;;;;0.50;0.50;;;16.80;67.50;;;;;;4898378;29;20445;-61
2024/03/26 16:48:18;;;;;;;0.30;0.30;;;16.70;68.40;;;;;;4900187;29;20209;-59
2024/03/26 16:50:43;;;;;;;0.30;0.30;;;16.70;69.30;;;;;;4900191;29;20194;-60
2024/03/26 16:53:09;;;;;;;0.30;0.30;;;16.60;69.80;;;;;;4900244;29;20182;-60
2024/03/26 16:55:36;;;;;;;0.30;0.30;;;16.50;70.60;;;;;;4899720;29;20211;-62
2024/03/26 16:58:03;;;;;;;0.30;0.30;;;16.40;71.20;;;;;;4899559;29;20224;-60
2024/03/26 17:00:30;;;;;;;0.30;0.30;;;16.40;72.00;;;;;;4899602;29;20425;-61
2024/03/26 17:02:56;;;;;;;0.30;0.30;;;16.30;72.30;;;;;;4899341;29;20434;-63
2024/03/26 17:05:22;;;;;;;0.30;0.30;;;16.20;72.80;;;;;;4898977;29;20453;-60
2024/03/26 17:07:47;;;;;;;0.50;0.50;;;16.10;73.70;;;;;;4899486;29;20469;-60
2024/03/26 17:10:13;;;;;;;0.30;0.30;;;16.10;74.40;;;;;;4899278;29;20176;-62
2024/03/26 17:12:38;;;;;;;0.30;0.30;;;16.00;74.60;;;;;;4898612;29;20213;-62
2024/03/26 17:15:04;;;;;;;0.30;0.30;;;15.90;75.00;;;;;;4899277;29;20186;-59
2024/03/26 17:17:30;;;;;;;0.30;0.30;;;15.80;75.70;;;;;;4897981;29;20223;-63
2024/03/26 17:19:56;;;;;;;0.60;0.57;;;15.80;76.50;;;;;;4899546;29;20514;-61
2024/03/26 17:22:22;;;;;;;0.40;0.40;;;15.70;77.00;;;;;;4899459;29;20423;-63
2024/03/26 17:24:47;;;;;;;0.40;0.40;;;15.60;77.40;;;;;;4899492;29;20182;-59
2024/03/26 17:27:13;;;;;;;0.30;0.30;;;15.50;78.20;;;;;;4898937;29;20756;-59
2024/03/26 17:29:38;;;;;;;0.37;0.37;;;15.40;78.40;;;;;;4898911;29;20195;-61
2024/03/26 17:32:04;;;;;;;0.40;0.40;;;15.30;78.80;;;;;;4898785;29;20220;-61
2024/03/26 17:34:31;;;;;;;0.30;0.30;;;15.30;79.50;;;;;;4898987;29;20174;-61
2024/03/26 17:36:57;;;;;;;0.30;0.30;;;15.10;80.00;;;;;;4899301;29;20839;-60
2024/03/26 17:39:23;;;;;;;0.30;0.30;;;15.10;80.60;;;;;;4898842;29;20405;-60
2024/03/26 17:41:50;;;;;;;0.30;0.30;;;15.00;81.20;;;;;;4898488;29;20450;-59
2024/03/26 17:44:16;;;;;;;0.40;0.40;;;14.90;81.70;;;;;;4899171;29;20426;-62
2024/03/26 17:46:41;;;;;;;0.30;0.30;;;14.80;83.10;;;;;;4898819;29;20926;-61
2024/03/26 17:49:08;;;;;;;0.40;0.40;;;14.70;82.90;;;;;;4898901;29;20185;-61
2024/03/26 17:51:33;;;;;;;0.30;0.30;;;14.60;83.60;;;;;;4898886;29;20692;-60
2024/03/26 17:53:59;;;;;;;0.30;0.30;;;14.60;84.30;;;;;;4899041;29;20423;-61
2024/03/26 17:56:24;;;;;;;0.30;0.30;;;14.50;84.40;;;;;;4898342;29;20281;-60